Time;durP1;ratioP1;P1;durP2;ratioP2;P2;SDS_P1;SDS_P2;PMS_P1;PMS_P2;Temp;Humidity;BMP_temperature;BMP_pressure;BME280_temperature;BME280_humidity;BME280_pressure;Samples;Min_cycle;Max_cycle;Signal;HPM_P1;HPM_P2
2022/05/22 00:02:05;;;;;;;;;;;;;;;14.71;58.62;98199.13;5149693;27;19918;-59
2022/05/22 00:04:59;;;;;;;;;;;;;;;14.65;58.48;98195.78;5142852;27;19969;-63
2022/05/22 00:07:27;;;;;;;;;;;;;;;14.58;58.81;98190.03;5143502;27;19972;-62
2022/05/22 00:09:56;;;;;;;;;;;;;;;14.48;59.12;98191.19;5147294;27;19958;-62
2022/05/22 00:12:24;;;;;;;;;;;;;;;14.56;59.03;98190.38;5155408;27;20017;-61
2022/05/22 00:14:51;;;;;;;;;;;;;;;14.50;59.40;98183.50;5147819;27;19923;-62
2022/05/22 00:17:20;;;;;;;;;;;;;;;14.62;59.14;98182.78;5149591;27;20001;-62
2022/05/22 00:19:52;;;;;;;;;;;;;;;14.63;58.59;98184.38;5143025;27;19918;-62
2022/05/22 00:22:20;;;;;;;;;;;;;;;14.45;59.07;98180.91;5151992;27;19926;-62
2022/05/22 00:24:48;;;;;;;;;;;;;;;14.47;59.07;98177.84;5155522;27;20010;-62
2022/05/22 00:27:17;;;;;;;;;;;;;;;14.89;57.64;98182.25;5144175;27;19923;-63
2022/05/22 00:29:45;;;;;;;;;;;;;;;14.52;58.50;98181.22;5150294;27;19919;-63
2022/05/22 00:32:13;;;;;;;;;;;;;;;14.62;58.73;98186.31;5114029;27;19931;-62
2022/05/22 00:34:41;;;;;;;;;;;;;;;14.53;58.77;98182.81;5144787;27;19937;-61
2022/05/22 00:37:13;;;;;;;;;;;;;;;14.43;59.31;98185.88;5149090;27;19929;-63
2022/05/22 00:39:43;;;;;;;;;;;;;;;14.43;59.20;98180.41;5133737;27;19919;-62
2022/05/22 00:42:16;;;;;;;;;;;;;;;14.38;59.63;98186.06;5147517;27;20203;-62
2022/05/22 00:44:47;;;;;;;;;;;;;;;14.21;59.76;98183.44;5136624;27;19919;-63
2022/05/22 00:47:40;;;;;;;;;;;;;;;13.93;60.77;98183.84;5160293;27;19927;-62
2022/05/22 00:50:10;;;;;;;;;;;;;;;13.91;60.96;98191.59;5142087;27;19980;-62
2022/05/22 00:52:38;;;;;;;;;;;;;;;13.89;60.88;98191.09;5142858;27;19927;-63
2022/05/22 00:55:06;;;;;;;;;;;;;;;13.78;61.51;98193.38;5152125;27;19930;-62
2022/05/22 00:58:01;;;;;;;;;;;;;;;14.00;61.03;98189.59;5141562;27;19922;-62
2022/05/22 01:00:35;;;;;;;;;;;;;;;14.04;60.43;98195.22;5135032;27;21483;-63
2022/05/22 01:05:50;;;;;;;;;;;;;;;14.28;59.59;98194.66;5147666;27;20031;-63
2022/05/22 01:08:18;;;;;;;;;;;;;;;14.47;58.41;98186.03;5150177;27;19920;-63
2022/05/22 01:10:47;;;;;;;;;;;;;;;14.41;58.64;98188.97;5150850;27;19967;-63
2022/05/22 01:13:16;;;;;;;;;;;;;;;14.23;59.21;98189.38;5145330;27;19919;-63
2022/05/22 01:15:46;;;;;;;;;;;;;;;13.86;60.17;98189.84;5133254;27;19927;-61
2022/05/22 01:18:14;;;;;;;;;;;;;;;13.69;60.90;98192.63;5118598;27;19942;-62
2022/05/22 01:20:45;;;;;;;;;;;;;;;13.65;61.43;98196.31;5135534;27;19963;-62
2022/05/22 01:23:17;;;;;;;;;;;;;;;14.30;59.37;98190.47;5127725;27;19923;-62
2022/05/22 01:25:45;;;;;;;;;;;;;;;13.78;60.95;98184.38;5140151;27;20017;-62
2022/05/22 01:28:15;;;;;;;;;;;;;;;13.95;60.51;98176.13;5141117;27;19969;-62
2022/05/22 01:30:43;;;;;;;;;;;;;;;14.01;60.58;98174.03;5145027;27;20351;-62
2022/05/22 01:33:11;;;;;;;;;;;;;;;14.29;59.73;98179.88;5142840;27;19923;-62
2022/05/22 01:35:40;;;;;;;;;;;;;;;13.76;61.37;98186.66;5143714;27;19919;-62
2022/05/22 01:38:08;;;;;;;;;;;;;;;13.97;60.93;98178.56;5149651;27;19927;-61
2022/05/22 01:41:10;;;;;;;;;;;;;;;14.29;60.01;98168.94;5137989;27;20162;-61
2022/05/22 01:43:42;;;;;;;;;;;;;;;13.91;61.10;98174.41;5141251;27;20038;-61
2022/05/22 01:46:16;;;;;;;;;;;;;;;13.75;62.01;98176.84;5146120;27;20282;-62
2022/05/22 01:49:10;;;;;;;;;;;;;;;13.51;62.70;98182.84;5130681;27;19924;-61
2022/05/22 01:51:40;;;;;;;;;;;;;;;13.93;61.21;98192.06;5148503;27;19942;-61
2022/05/22 01:54:08;;;;;;;;;;;;;;;14.02;60.71;98183.84;5133811;27;19930;-62
2022/05/22 01:56:39;;;;;;;;;;;;;;;13.60;61.76;98186.34;5140859;27;19919;-62
2022/05/22 01:59:10;;;;;;;;;;;;;;;13.31;62.68;98178.84;5144504;27;19935;-61
2022/05/22 02:01:48;;;;;;;;;;;;;;;13.53;61.79;98175.94;5141258;27;19926;-64
2022/05/22 02:04:16;;;;;;;;;;;;;;;13.28;62.76;98174.84;5143095;27;19926;-64
2022/05/22 02:09:30;;;;;;;;;;;;;;;13.73;61.73;98179.09;5145769;27;19919;-62
2022/05/22 02:11:57;;;;;;;;;;;;;;;13.75;61.43;98183.13;5140476;27;19975;-62
2022/05/22 02:14:27;;;;;;;;;;;;;;;13.36;62.12;98173.22;5142926;27;19992;-61
2022/05/22 02:17:30;;;;;;;;;;;;;;;13.56;61.54;98175.28;5143957;27;19923;-59
2022/05/22 02:20:03;;;;;;;;;;;;;;;13.75;60.64;98171.41;5148270;27;19991;-61
2022/05/22 02:22:41;;;;;;;;;;;;;;;13.37;61.54;98166.66;5142281;27;19923;-62
2022/05/22 02:25:11;;;;;;;;;;;;;;;13.26;62.13;98165.34;5131498;27;20308;-62
2022/05/22 02:27:40;;;;;;;;;;;;;;;13.27;61.81;98167.00;5128827;27;19984;-62
2022/05/22 02:30:16;;;;;;;;;;;;;;;13.83;59.97;98165.09;5132651;27;20124;-62
2022/05/22 02:32:44;;;;;;;;;;;;;;;13.47;61.21;98160.84;5149228;27;19927;-63
2022/05/22 02:35:14;;;;;;;;;;;;;;;13.77;60.13;98167.19;5141261;27;20008;-62
2022/05/22 02:37:42;;;;;;;;;;;;;;;13.68;60.29;98166.41;5138686;27;20139;-62
2022/05/22 02:40:23;;;;;;;;;;;;;;;13.41;61.23;98151.22;5126317;27;19931;-62
2022/05/22 02:42:54;;;;;;;;;;;;;;;13.76;60.23;98146.50;5137874;27;19934;-62
2022/05/22 02:45:30;;;;;;;;;;;;;;;13.59;60.57;98152.00;5110237;27;20436;-63
2022/05/22 02:48:33;;;;;;;;;;;;;;;13.42;61.01;98158.28;5131946;27;19924;-62
2022/05/22 02:51:05;;;;;;;;;;;;;;;13.09;62.10;98153.31;5134709;27;20400;-61
2022/05/22 02:53:34;;;;;;;;;;;;;;;13.18;61.73;98164.22;5136927;27;19929;-62
2022/05/22 02:56:21;;;;;;;;;;;;;;;13.01;62.48;98156.84;5146277;27;19944;-63
2022/05/22 02:59:04;;;;;;;;;;;;;;;13.19;61.75;98154.09;5134484;27;19928;-65
2022/05/22 03:01:54;;;;;;;;;;;;;;;13.32;61.51;98151.25;5090420;27;20363;-60
2022/05/22 03:04:22;;;;;;;;;;;;;;;13.75;60.19;98150.34;5126191;27;19949;-63
2022/05/22 03:06:52;;;;;;;;;;;;;;;13.08;61.99;98159.88;5121477;27;19920;-60
2022/05/22 03:09:22;;;;;;;;;;;;;;;13.08;62.00;98151.72;5110656;27;20357;-63
2022/05/22 03:11:57;;;;;;;;;;;;;;;13.05;62.16;98148.84;5102962;27;20371;-62
2022/05/22 03:14:25;;;;;;;;;;;;;;;13.40;61.08;98155.06;5124045;27;19919;-62
2022/05/22 03:16:56;;;;;;;;;;;;;;;13.27;61.50;98153.34;5135745;27;19990;-62
2022/05/22 03:19:30;;;;;;;;;;;;;;;13.23;61.95;98138.75;5104871;27;20291;-64
2022/05/22 03:21:58;;;;;;;;;;;;;;;13.30;61.30;98142.56;5118753;27;19919;-64
2022/05/22 03:24:26;;;;;;;;;;;;;;;13.46;60.99;98140.13;5104001;27;19923;-63
2022/05/22 03:26:54;;;;;;;;;;;;;;;13.42;61.21;98138.38;5131313;27;20263;-64
2022/05/22 03:29:23;;;;;;;;;;;;;;;13.23;61.55;98138.75;5114578;27;19919;-61
2022/05/22 03:31:57;;;;;;;;;;;;;;;13.55;61.05;98135.47;5121490;27;20014;-64
2022/05/22 03:34:25;;;;;;;;;;;;;;;13.17;61.98;98131.81;5128442;27;19933;-63
2022/05/22 03:36:56;;;;;;;;;;;;;;;13.23;62.16;98125.09;5114073;27;19919;-66
2022/05/22 03:39:25;;;;;;;;;;;;;;;13.31;61.68;98127.78;5126393;27;20034;-63
2022/05/22 03:41:54;;;;;;;;;;;;;;;13.55;60.94;98113.63;5101111;27;19920;-61
2022/05/22 03:44:24;;;;;;;;;;;;;;;13.62;60.77;98108.47;5106829;27;19920;-63
2022/05/22 03:46:52;;;;;;;;;;;;;;;13.52;60.65;98105.28;5122537;27;19923;-63
2022/05/22 03:49:27;;;;;;;;;;;;;;;13.25;61.74;98103.75;5112262;27;19923;-62
2022/05/22 03:51:57;;;;;;;;;;;;;;;13.00;62.33;98114.34;5114604;27;19932;-64
2022/05/22 03:54:25;;;;;;;;;;;;;;;13.08;62.31;98113.53;5108003;27;20100;-63
2022/05/22 03:56:57;;;;;;;;;;;;;;;12.82;63.14;98110.81;5112983;27;20081;-64
2022/05/22 03:59:31;;;;;;;;;;;;;;;12.78;63.47;98109.03;5117306;28;20102;-64
2022/05/22 04:02:00;;;;;;;;;;;;;;;12.81;63.31;98105.69;5103483;28;20300;-64
2022/05/22 04:04:30;;;;;;;;;;;;;;;12.86;62.89;98100.06;5117039;28;19931;-63
2022/05/22 04:07:22;;;;;;;;;;;;;;;13.13;62.41;98098.13;5131491;27;19923;-61
2022/05/22 04:09:55;;;;;;;;;;;;;;;13.22;61.85;98094.28;5118071;27;19927;-63
2022/05/22 04:12:53;;;;;;;;;;;;;;;13.41;61.77;98093.91;5119716;27;20320;-61
2022/05/22 04:15:22;;;;;;;;;;;;;;;13.58;61.09;98093.88;5114559;28;20019;-64
2022/05/22 04:17:58;;;;;;;;;;;;;;;13.34;62.04;98090.88;5102034;27;19923;-64
2022/05/22 04:20:32;;;;;;;;;;;;;;;13.73;60.67;98094.44;5112323;28;19943;-63
2022/05/22 04:26:19;;;;;;;;;;;;;;;13.74;60.44;98106.97;5118521;28;19930;-63
2022/05/22 04:28:47;;;;;;;;;;;;;;;13.37;61.29;98098.44;5119782;28;19926;-63
2022/05/22 04:31:23;;;;;;;;;;;;;;;13.68;60.93;98098.16;5113989;28;20227;-64
2022/05/22 04:34:14;;;;;;;;;;;;;;;13.61;60.90;98090.47;5114126;28;19924;-63
2022/05/22 04:36:44;;;;;;;;;;;;;;;13.53;61.22;98085.88;5123680;28;19924;-63
2022/05/22 04:40:13;;;;;;;;;;;;;;;13.59;61.22;98081.81;5115537;27;19919;-63
2022/05/22 04:43:05;;;;;;;;;;;;;;;13.34;62.32;98088.16;5101530;27;19930;-61
2022/05/22 04:45:34;;;;;;;;;;;;;;;13.45;61.47;98094.88;5122107;27;20021;-64
2022/05/22 04:48:05;;;;;;;;;;;;;;;13.80;60.84;98100.22;5121555;27;19948;-61
2022/05/22 04:50:37;;;;;;;;;;;;;;;13.70;60.70;98109.56;5107725;27;20371;-64
2022/05/22 04:53:29;;;;;;;;;;;;;;;13.42;61.74;98116.53;5125546;27;19920;-64
2022/05/22 04:56:15;;;;;;;;;;;;;;;13.79;60.49;98109.53;5126957;27;20106;-63
2022/05/22 04:58:47;;;;;;;;;;;;;;;13.94;60.04;98098.06;5128677;27;19954;-64
2022/05/22 05:01:17;;;;;;;;;;;;;;;13.70;61.06;98098.66;5124062;27;19923;-63
2022/05/22 05:03:56;;;;;;;;;;;;;;;13.57;61.77;98100.44;5124146;27;20383;-63
2022/05/22 05:06:28;;;;;;;;;;;;;;;13.66;61.58;98114.06;5129659;27;20192;-63
2022/05/22 05:08:58;;;;;;;;;;;;;;;13.67;61.26;98115.66;5138219;27;19934;-63
2022/05/22 05:11:32;;;;;;;;;;;;;;;13.95;60.53;98109.78;5136188;27;20017;-63
2022/05/22 05:14:08;;;;;;;;;;;;;;;13.60;61.43;98099.81;5156678;27;19946;-64
2022/05/22 05:16:38;;;;;;;;;;;;;;;13.54;62.05;98101.13;5122323;27;19920;-63
2022/05/22 05:19:10;;;;;;;;;;;;;;;13.65;61.85;98104.28;5125056;27;20311;-64
2022/05/22 05:21:45;;;;;;;;;;;;;;;14.08;60.44;98103.31;5128819;27;20021;-63
2022/05/22 05:24:23;;;;;;;;;;;;;;;14.35;59.87;98102.81;5143849;27;19987;-64
2022/05/22 05:26:54;;;;;;;;;;;;;;;14.11;60.22;98100.72;5142294;27;20247;-63
2022/05/22 05:29:38;;;;;;;;;;;;;;;14.15;60.35;98098.91;5133767;27;19919;-63
2022/05/22 05:32:06;;;;;;;;;;;;;;;14.28;60.13;98099.03;5118217;27;19919;-63
2022/05/22 05:34:35;;;;;;;;;;;;;;;14.44;59.45;98099.25;5137726;27;19926;-63
2022/05/22 05:37:11;;;;;;;;;;;;;;;14.54;59.25;98099.69;5143547;27;19919;-64
2022/05/22 05:39:47;;;;;;;;;;;;;;;14.41;59.29;98095.22;5163028;27;19919;-64
2022/05/22 05:42:43;;;;;;;;;;;;;;;14.19;60.21;98087.34;5132045;27;19930;-64
2022/05/22 05:45:35;;;;;;;;;;;;;;;14.32;60.21;98091.75;5144517;27;19925;-64
2022/05/22 05:48:03;;;;;;;;;;;;;;;14.73;59.02;98084.72;5160407;27;20406;-63
2022/05/22 05:50:48;;;;;;;;;;;;;;;14.66;58.84;98086.06;5162732;27;20341;-63
2022/05/22 05:53:34;;;;;;;;;;;;;;;14.52;59.44;98082.78;5152923;27;19961;-64
2022/05/22 05:56:24;;;;;;;;;;;;;;;14.91;58.17;98080.72;5166462;27;19929;-63
2022/05/22 05:59:18;;;;;;;;;;;;;;;15.22;56.59;98093.16;5128167;27;19920;-63
2022/05/22 06:01:49;;;;;;;;;;;;;;;15.06;56.93;98091.03;5141201;27;20331;-64
2022/05/22 06:04:18;;;;;;;;;;;;;;;15.16;56.69;98082.41;5133978;27;19942;-64
2022/05/22 06:06:46;;;;;;;;;;;;;;;14.81;57.74;98076.47;5137527;27;20018;-64
2022/05/22 06:09:14;;;;;;;;;;;;;;;15.15;57.81;98086.28;5132489;27;19923;-63
2022/05/22 06:12:10;;;;;;;;;;;;;;;15.17;57.79;98077.72;5129439;27;20030;-63
2022/05/22 06:14:49;;;;;;;;;;;;;;;15.18;55.93;98074.69;5121751;27;19919;-63
2022/05/22 06:17:19;;;;;;;;;;;;;;;15.32;56.54;98079.84;5145381;27;20065;-62
2022/05/22 06:19:58;;;;;;;;;;;;;;;15.61;55.15;98069.88;5137013;27;20384;-62
2022/05/22 06:22:39;;;;;;;;;;;;;;;15.58;54.75;98056.84;5102556;27;20012;-63
2022/05/22 06:25:27;;;;;;;;;;;;;;;15.57;55.28;98074.44;5118514;27;19988;-63
2022/05/22 06:28:25;;;;;;;;;;;;;;;15.74;55.68;98071.50;5114900;27;19987;-62
2022/05/22 06:31:24;;;;;;;;;;;;;;;16.08;54.34;98064.75;5133005;27;20345;-61
2022/05/22 06:34:07;;;;;;;;;;;;;;;16.18;53.14;98064.31;5130024;27;19925;-67
2022/05/22 06:36:53;;;;;;;;;;;;;;;16.20;52.41;98063.97;5150881;27;19942;-59
2022/05/22 06:39:52;;;;;;;;;;;;;;;16.11;52.96;98066.03;5136098;27;19989;-59
2022/05/22 06:45:54;;;;;;;;;;;;;;;16.64;51.80;98061.38;5127120;27;20006;-59
2022/05/22 06:48:45;;;;;;;;;;;;;;;17.05;50.19;98052.00;5095604;27;20037;-59
2022/05/22 06:51:45;;;;;;;;;;;;;;;17.00;50.31;98057.75;5149428;27;19923;-58
2022/05/22 06:54:34;;;;;;;;;;;;;;;17.05;50.66;98046.50;5126312;27;19941;-59
2022/05/22 06:57:28;;;;;;;;;;;;;;;16.89;50.70;98057.44;5129299;27;20295;-59
2022/05/22 07:00:06;;;;;;;;;;;;;;;16.92;50.88;98053.19;5128056;27;19919;-59
2022/05/22 07:02:58;;;;;;;;;;;;;;;17.21;50.69;98057.53;5140092;27;20058;-59
2022/05/22 07:05:46;;;;;;;;;;;;;;;17.72;48.99;98063.97;5126783;27;19972;-59
2022/05/22 07:08:34;;;;;;;;;;;;;;;17.58;49.04;98058.09;5126377;27;19919;-58
2022/05/22 07:11:40;;;;;;;;;;;;;;;17.74;48.85;98056.19;5143094;27;19929;-59
2022/05/22 07:14:27;;;;;;;;;;;;;;;17.67;48.50;98055.16;5133630;27;20367;-59
2022/05/22 07:17:16;;;;;;;;;;;;;;;17.80;48.79;98049.28;5089519;27;19938;-59
2022/05/22 07:19:56;;;;;;;;;;;;;;;17.86;48.18;98049.00;5142821;27;20296;-59
2022/05/22 07:22:42;;;;;;;;;;;;;;;17.94;47.24;98043.31;5143014;27;19966;-59
2022/05/22 07:25:26;;;;;;;;;;;;;;;18.12;47.34;98043.75;5142026;27;19930;-59
2022/05/22 07:28:12;;;;;;;;;;;;;;;18.13;47.08;98036.28;5139876;27;20121;-59
2022/05/22 07:31:16;;;;;;;;;;;;;;;18.24;47.10;98035.38;5100305;27;19930;-58
2022/05/22 07:34:17;;;;;;;;;;;;;;;18.53;45.70;98027.72;5083523;27;19919;-59
2022/05/22 07:37:00;;;;;;;;;;;;;;;18.36;45.62;98031.69;5141581;27;19942;-59
2022/05/22 07:40:03;;;;;;;;;;;;;;;18.56;46.68;98027.03;5124472;27;20047;-59
2022/05/22 07:42:31;;;;;;;;;;;;;;;18.40;44.33;98026.28;5143562;27;20337;-59
2022/05/22 07:45:18;;;;;;;;;;;;;;;18.38;44.37;98029.41;5142613;27;19926;-59
2022/05/22 07:47:53;;;;;;;;;;;;;;;18.64;43.29;98019.69;5134155;27;20320;-59
2022/05/22 07:50:34;;;;;;;;;;;;;;;18.53;44.34;98020.28;5135269;27;19919;-59
2022/05/22 07:53:22;;;;;;;;;;;;;;;18.79;43.91;98019.66;5141298;27;19968;-59
2022/05/22 07:56:21;;;;;;;;;;;;;;;18.95;44.13;98018.78;5110660;27;19941;-59
2022/05/22 07:59:45;;;;;;;;;;;;;;;18.94;43.63;98019.94;5101486;27;20014;-59
2022/05/22 08:02:24;;;;;;;;;;;;;;;19.37;42.27;98027.03;5123004;27;19946;-59
2022/05/22 08:04:55;;;;;;;;;;;;;;;19.46;41.05;98024.06;5106897;28;19939;-59
2022/05/22 08:07:34;;;;;;;;;;;;;;;19.50;40.29;98019.41;5113952;28;20359;-59
2022/05/22 08:10:22;;;;;;;;;;;;;;;19.44;40.53;98015.34;5125630;27;19938;-58
2022/05/22 08:12:54;;;;;;;;;;;;;;;19.32;40.66;98011.63;5124232;27;20014;-59
2022/05/22 08:15:30;;;;;;;;;;;;;;;19.00;41.77;98007.47;5121178;27;19930;-59
2022/05/22 08:18:13;;;;;;;;;;;;;;;19.06;41.48;98003.25;5107301;27;20240;-59
2022/05/22 08:20:43;;;;;;;;;;;;;;;19.16;40.73;98004.63;5104768;27;20266;-58
2022/05/22 08:23:20;;;;;;;;;;;;;;;19.63;39.43;97993.28;5122134;27;20043;-58
2022/05/22 08:26:02;;;;;;;;;;;;;;;19.60;39.73;97988.50;5127981;27;19925;-58
2022/05/22 08:28:33;;;;;;;;;;;;;;;19.80;40.12;97986.44;5100833;27;20019;-58
2022/05/22 08:31:04;;;;;;;;;;;;;;;19.83;39.78;97989.28;5110083;27;19920;-59
2022/05/22 08:33:32;;;;;;;;;;;;;;;19.91;38.96;97983.84;5096733;28;19977;-58
2022/05/22 08:36:03;;;;;;;;;;;;;;;20.01;39.58;97974.94;5119893;27;19955;-58
2022/05/22 08:38:40;;;;;;;;;;;;;;;20.21;38.17;97973.66;5123979;27;19920;-58
2022/05/22 08:41:13;;;;;;;;;;;;;;;20.25;38.78;97974.53;5128805;27;20449;-59
2022/05/22 08:43:42;;;;;;;;;;;;;;;20.27;39.58;97965.84;5133981;27;20044;-58
2022/05/22 08:46:13;;;;;;;;;;;;;;;20.41;40.05;97968.81;5121213;27;19996;-58
2022/05/22 08:48:42;;;;;;;;;;;;;;;20.38;38.62;97970.34;5129473;27;19992;-58
2022/05/22 08:51:12;;;;;;;;;;;;;;;20.80;36.63;97974.03;5122211;27;20298;-58
2022/05/22 08:53:40;;;;;;;;;;;;;;;20.67;37.31;97966.00;5117549;27;19945;-58
2022/05/22 08:59:06;;;;;;;;;;;;;;;20.35;39.35;97964.78;5123075;27;20361;-58
2022/05/22 09:01:36;;;;;;;;;;;;;;;20.50;39.50;97960.25;5128985;27;19930;-58
2022/05/22 09:04:07;;;;;;;;;;;;;;;20.87;36.97;97957.53;5103376;27;19927;-58
2022/05/22 09:06:36;;;;;;;;;;;;;;;20.46;37.28;97962.19;5118345;27;20026;-58
2022/05/22 09:09:05;;;;;;;;;;;;;;;20.36;37.42;97955.34;5110462;27;19927;-58
2022/05/22 09:11:41;;;;;;;;;;;;;;;20.15;38.60;97962.16;5124049;27;20338;-58
2022/05/22 09:14:10;;;;;;;;;;;;;;;20.06;37.93;97949.81;5126841;27;19919;-58
2022/05/22 09:16:40;;;;;;;;;;;;;;;20.09;37.14;97957.34;5114814;27;20004;-58
2022/05/22 09:19:09;;;;;;;;;;;;;;;20.24;37.27;97961.91;5125708;27;19919;-58
2022/05/22 09:21:38;;;;;;;;;;;;;;;20.24;36.57;97963.84;5124329;27;20026;-58
2022/05/22 09:24:06;;;;;;;;;;;;;;;20.28;36.63;97959.97;5121408;27;19944;-58
2022/05/22 09:26:46;;;;;;;;;;;;;;;20.44;36.46;97950.69;5126132;27;19930;-58
2022/05/22 09:29:18;;;;;;;;;;;;;;;20.26;36.80;97944.97;5126676;27;19923;-58
2022/05/22 09:31:47;;;;;;;;;;;;;;;19.86;37.27;97938.88;5094988;28;19954;-58
2022/05/22 09:34:17;;;;;;;;;;;;;;;19.76;38.31;97944.25;5120190;27;20282;-59
2022/05/22 09:36:48;;;;;;;;;;;;;;;19.92;37.14;97935.81;5123849;27;19939;-59
2022/05/22 09:39:36;;;;;;;;;;;;;;;19.93;37.06;97931.91;5116480;27;19925;-59
2022/05/22 09:42:13;;;;;;;;;;;;;;;19.63;37.61;97938.16;5128903;27;20350;-59
2022/05/22 09:44:54;;;;;;;;;;;;;;;19.66;36.59;97928.38;5127729;27;19956;-59
2022/05/22 09:47:27;;;;;;;;;;;;;;;19.89;36.46;97924.38;5127267;27;19964;-59
2022/05/22 09:49:59;;;;;;;;;;;;;;;20.10;35.94;97925.84;5123036;27;19923;-59
2022/05/22 09:52:30;;;;;;;;;;;;;;;20.05;36.13;97917.88;5121623;27;19946;-59
2022/05/22 09:58:05;;;;;;;;;;;;;;;20.13;38.28;97914.03;5130103;27;19930;-59
2022/05/22 10:00:34;;;;;;;;;;;;;;;20.24;39.84;97916.94;5143362;27;19930;-59
2022/05/22 10:03:04;;;;;;;;;;;;;;;20.59;38.39;97917.41;5152347;27;19995;-59
2022/05/22 10:05:34;;;;;;;;;;;;;;;20.89;36.01;97917.34;5140282;27;20362;-59
2022/05/22 10:08:04;;;;;;;;;;;;;;;20.95;35.99;97920.56;5137830;27;19931;-59
2022/05/22 10:10:32;;;;;;;;;;;;;;;21.01;37.00;97913.50;5139390;27;20370;-59
2022/05/22 10:16:01;;;;;;;;;;;;;;;21.21;35.12;97903.03;5146946;27;19919;-59
2022/05/22 10:18:33;;;;;;;;;;;;;;;21.14;35.46;97900.97;5116856;27;19955;-59
2022/05/22 10:21:05;;;;;;;;;;;;;;;21.22;35.68;97907.38;5149050;27;19930;-59
2022/05/22 10:23:58;;;;;;;;;;;;;;;21.10;35.04;97907.69;5145980;27;19931;-59
2022/05/22 10:26:29;;;;;;;;;;;;;;;20.55;36.32;97901.97;5144769;27;19930;-59
2022/05/22 10:29:04;;;;;;;;;;;;;;;20.87;35.72;97905.88;5144119;27;20331;-59
2022/05/22 10:31:35;;;;;;;;;;;;;;;20.49;36.83;97897.97;5137314;27;19919;-59
2022/05/22 10:34:05;;;;;;;;;;;;;;;20.46;36.76;97890.44;5145807;27;19919;-59
2022/05/22 10:36:33;;;;;;;;;;;;;;;20.54;37.30;97895.66;5143930;27;19972;-57
2022/05/22 10:39:02;;;;;;;;;;;;;;;20.38;36.49;97893.09;5143435;27;19995;-58
2022/05/22 10:44:20;;;;;;;;;;;;;;;20.06;37.15;97884.41;5133551;27;20311;-59
2022/05/22 10:46:49;;;;;;;;;;;;;;;20.02;37.54;97882.78;5140621;27;20049;-58
2022/05/22 10:49:17;;;;;;;;;;;;;;;19.85;37.37;97882.16;5136520;27;19927;-58
2022/05/22 10:51:54;;;;;;;;;;;;;;;19.92;38.80;97881.50;5119853;27;20077;-60
2022/05/22 10:54:23;;;;;;;;;;;;;;;19.92;37.40;97878.72;5148364;27;19919;-60
2022/05/22 10:57:07;;;;;;;;;;;;;;;19.92;37.82;97877.91;5136752;27;19931;-59
2022/05/22 10:59:36;;;;;;;;;;;;;;;20.30;37.11;97879.59;5136011;27;20290;-60
2022/05/22 11:02:05;;;;;;;;;;;;;;;20.69;35.57;97868.22;5123685;27;20007;-59
2022/05/22 11:04:58;;;;;;;;;;;;;;;20.41;36.85;97875.78;5119413;27;19946;-59
2022/05/22 11:07:29;;;;;;;;;;;;;;;20.30;38.43;97882.34;5125999;27;19931;-60
2022/05/22 11:09:58;;;;;;;;;;;;;;;20.10;37.50;97876.19;5131402;27;19927;-60
2022/05/22 11:12:27;;;;;;;;;;;;;;;20.08;38.36;97867.50;5126602;27;19942;-60
2022/05/22 11:15:05;;;;;;;;;;;;;;;20.50;37.05;97867.22;5151013;27;20350;-60
2022/05/22 11:20:50;;;;;;;;;;;;;;;20.90;35.79;97852.66;5166556;27;19929;-59
2022/05/22 11:23:33;;;;;;;;;;;;;;;21.11;35.85;97857.56;5156416;27;19930;-59
2022/05/22 11:26:29;;;;;;;;;;;;;;;21.17;35.32;97856.03;5143893;27;20149;-59
2022/05/22 11:29:08;;;;;;;;;;;;;;;21.17;35.04;97863.53;5133561;27;20002;-59
2022/05/22 11:31:42;;;;;;;;;;;;;;;21.13;35.67;97859.94;5128819;27;19931;-59
2022/05/22 11:34:25;;;;;;;;;;;;;;;21.25;35.92;97848.56;5146499;27;19971;-58
2022/05/22 11:36:53;;;;;;;;;;;;;;;20.97;36.38;97846.38;5114986;27;19925;-59
2022/05/22 11:39:32;;;;;;;;;;;;;;;20.76;36.13;97838.69;5142711;27;20014;-59
2022/05/22 11:42:01;;;;;;;;;;;;;;;21.18;35.20;97841.03;5150102;27;19923;-59
2022/05/22 11:44:38;;;;;;;;;;;;;;;20.98;35.01;97828.63;5147321;27;19919;-59
2022/05/22 11:47:15;;;;;;;;;;;;;;;21.31;34.70;97840.78;5138845;27;19919;-59
2022/05/22 11:49:45;;;;;;;;;;;;;;;21.15;34.90;97821.69;5147045;27;19926;-59
2022/05/22 11:55:16;;;;;;;;;;;;;;;21.39;35.55;97815.56;5152606;27;20183;-59
2022/05/22 11:57:45;;;;;;;;;;;;;;;21.31;34.65;97807.63;5132818;27;19935;-60
2022/05/22 12:00:15;;;;;;;;;;;;;;;21.30;34.93;97803.25;5146757;27;19995;-59
2022/05/22 12:02:50;;;;;;;;;;;;;;;21.51;35.28;97810.88;5146624;27;19935;-59
2022/05/22 12:05:24;;;;;;;;;;;;;;;21.41;34.85;97812.41;5139469;27;19931;-58
2022/05/22 12:08:00;;;;;;;;;;;;;;;21.43;34.75;97808.09;5139675;27;19919;-59
2022/05/22 12:10:54;;;;;;;;;;;;;;;21.13;35.59;97799.16;5160897;27;19919;-59
2022/05/22 12:13:23;;;;;;;;;;;;;;;21.27;35.82;97796.50;5126660;27;20011;-59
2022/05/22 12:15:52;;;;;;;;;;;;;;;21.35;35.65;97794.59;5122853;27;19919;-59
2022/05/22 12:18:25;;;;;;;;;;;;;;;21.78;33.96;97795.63;5149053;27;19919;-58
2022/05/22 12:21:00;;;;;;;;;;;;;;;21.73;34.32;97786.91;5141909;27;19919;-59
2022/05/22 12:23:29;;;;;;;;;;;;;;;21.61;34.11;97785.28;5128935;27;19980;-58
2022/05/22 12:25:58;;;;;;;;;;;;;;;21.75;33.91;97788.13;5147957;27;19972;-58
2022/05/22 12:28:28;;;;;;;;;;;;;;;21.77;34.16;97777.44;5142599;27;19992;-58
2022/05/22 12:30:58;;;;;;;;;;;;;;;21.83;33.40;97773.13;5130369;27;20008;-58
2022/05/22 12:33:29;;;;;;;;;;;;;;;21.60;34.65;97770.66;5137387;27;19926;-59
2022/05/22 12:35:57;;;;;;;;;;;;;;;21.56;34.80;97771.81;5150663;27;19942;-58
2022/05/22 12:38:25;;;;;;;;;;;;;;;21.43;35.15;97774.13;5136895;27;19968;-58
2022/05/22 12:40:54;;;;;;;;;;;;;;;21.47;35.24;97765.88;5143292;27;19919;-59
2022/05/22 12:43:22;;;;;;;;;;;;;;;21.53;35.64;97762.34;5134284;27;20017;-58
2022/05/22 12:45:55;;;;;;;;;;;;;;;21.66;35.10;97762.78;5144467;27;19919;-59
2022/05/22 12:48:28;;;;;;;;;;;;;;;21.56;35.08;97758.78;5134654;27;19955;-59
2022/05/22 12:51:08;;;;;;;;;;;;;;;21.71;35.49;97760.44;5147595;27;19925;-58
2022/05/22 12:53:40;;;;;;;;;;;;;;;21.63;35.05;97761.59;5144106;27;20003;-59
2022/05/22 12:56:34;;;;;;;;;;;;;;;21.64;35.43;97760.41;5118283;27;19970;-58
2022/05/22 12:59:03;;;;;;;;;;;;;;;21.75;35.15;97751.38;5145876;27;19919;-59
2022/05/22 13:01:40;;;;;;;;;;;;;;;21.97;34.58;97747.50;5138103;27;19919;-58
2022/05/22 13:04:21;;;;;;;;;;;;;;;21.97;34.62;97740.00;5132961;27;19927;-58
2022/05/22 13:06:50;;;;;;;;;;;;;;;21.91;34.78;97738.78;5136115;27;19923;-58
2022/05/22 13:09:33;;;;;;;;;;;;;;;22.15;33.86;97739.28;5148537;27;19922;-58
2022/05/22 13:12:02;;;;;;;;;;;;;;;22.11;34.29;97732.97;5131491;27;20268;-60
2022/05/22 13:14:32;;;;;;;;;;;;;;;21.88;34.71;97731.28;5137074;27;19927;-62
2022/05/22 13:17:01;;;;;;;;;;;;;;;21.98;34.44;97732.50;5158602;27;20017;-59
2022/05/22 13:19:56;;;;;;;;;;;;;;;21.77;34.17;97719.38;5150310;27;20033;-59
2022/05/22 13:22:28;;;;;;;;;;;;;;;21.84;35.35;97727.72;5140346;27;19949;-60
2022/05/22 13:24:56;;;;;;;;;;;;;;;22.01;35.23;97715.13;5140112;27;19920;-59
2022/05/22 13:27:30;;;;;;;;;;;;;;;22.19;35.12;97720.72;5146002;27;19926;-57
2022/05/22 13:29:59;;;;;;;;;;;;;;;22.26;34.87;97704.09;5153705;27;19919;-57
2022/05/22 13:32:53;;;;;;;;;;;;;;;22.24;34.88;97700.97;5155303;27;20058;-56
2022/05/22 13:35:26;;;;;;;;;;;;;;;22.36;34.80;97694.25;5155125;27;19930;-57
2022/05/22 13:37:56;;;;;;;;;;;;;;;22.22;33.94;97704.13;5155585;27;19966;-57
2022/05/22 13:40:27;;;;;;;;;;;;;;;22.38;33.00;97702.97;5136683;27;20379;-60
2022/05/22 13:46:20;;;;;;;;;;;;;;;22.34;33.54;97702.16;5155802;27;19971;-59
2022/05/22 13:49:03;;;;;;;;;;;;;;;22.17;33.80;97701.75;5124260;27;19923;-59
2022/05/22 13:54:28;;;;;;;;;;;;;;;22.35;35.08;97689.91;5121220;27;20388;-60
2022/05/22 13:56:58;;;;;;;;;;;;;;;22.35;34.38;97685.16;5141311;27;20320;-57
2022/05/22 13:59:27;;;;;;;;;;;;;;;22.57;32.47;97685.16;5145305;27;19920;-60
2022/05/22 14:01:55;;;;;;;;;;;;;;;22.57;32.69;97683.16;5145180;27;19971;-59
2022/05/22 14:04:24;;;;;;;;;;;;;;;22.58;33.22;97683.97;5146086;27;19924;-60
2022/05/22 14:06:53;;;;;;;;;;;;;;;22.43;34.13;97686.75;5130685;27;19950;-60
2022/05/22 14:09:23;;;;;;;;;;;;;;;22.60;33.23;97678.84;5146246;27;19923;-59